createdAt,value
2023-05-14T00:00:11.561Z,94977.16
2023-05-14T00:02:39.744Z,94969.97
2023-05-14T00:05:08.376Z,94976.63
2023-05-14T00:07:36.357Z,94975.88
2023-05-14T00:10:04.316Z,94972.09
2023-05-14T00:12:33.334Z,94972.28
2023-05-14T00:15:01.317Z,94975.50
2023-05-14T00:17:30.728Z,94970.22
2023-05-14T00:19:59.521Z,94961.66
2023-05-14T00:22:27.391Z,94959.84
2023-05-14T00:24:55.305Z,94957.09
2023-05-14T00:27:23.247Z,94954.47
2023-05-14T00:29:51.191Z,94947.50
2023-05-14T00:32:19.099Z,94945.47
2023-05-14T00:34:48.428Z,94927.63
2023-05-14T00:37:16.314Z,94945.47
2023-05-14T00:39:44.369Z,94951.66
2023-05-14T00:42:12.274Z,94951.03
2023-05-14T00:44:40.227Z,94951.84
2023-05-14T00:47:09.339Z,94947.03
2023-05-14T00:49:40.002Z,94938.94
2023-05-14T00:52:09.679Z,94942.75
2023-05-14T00:54:37.761Z,94932.75
2023-05-14T00:57:07.477Z,94937.19
2023-05-14T00:59:35.993Z,94942.59
2023-05-14T01:02:03.951Z,94933.84
2023-05-14T01:04:31.887Z,94934.84
2023-05-14T01:07:10.685Z,94929.03
2023-05-14T01:09:45.737Z,94932.50
2023-05-14T01:12:20.486Z,94930.81
2023-05-14T01:14:56.736Z,94930.53
2023-05-14T01:17:29.578Z,94918.53
2023-05-14T01:19:58.029Z,94919.53
2023-05-14T01:22:27.430Z,94920.81
2023-05-14T01:24:55.880Z,94933.41
2023-05-14T01:27:30.302Z,94941.09
2023-05-14T01:30:04.315Z,94959.66
2023-05-14T01:32:34.041Z,94954.41
2023-05-14T01:35:02.929Z,94950.19
2023-05-14T01:37:33.806Z,94933.16
2023-05-14T01:40:02.502Z,94944.88
2023-05-14T01:42:30.826Z,94952.16
2023-05-14T01:44:59.205Z,94959.19
2023-05-14T01:47:27.122Z,94946.13
2023-05-14T01:49:55.119Z,94944.16
2023-05-14T01:52:23.028Z,94942.25
2023-05-14T01:54:52.532Z,94944.31
2023-05-14T01:57:21.525Z,94955.66
2023-05-14T01:59:49.445Z,94958.91
2023-05-14T02:02:17.408Z,94956.47
2023-05-14T02:04:45.272Z,94954.66
2023-05-14T02:07:13.184Z,94951.63
2023-05-14T02:09:41.235Z,94961.94
2023-05-14T02:12:11.246Z,94939.78
2023-05-14T02:14:39.317Z,94953.47
2023-05-14T02:17:07.277Z,94954.56
2023-05-14T02:19:35.177Z,94950.38
2023-05-14T02:22:03.301Z,94958.91
2023-05-14T02:24:31.124Z,94968.72
2023-05-14T02:27:01.148Z,94974.34
2023-05-14T02:29:30.598Z,94961.50
2023-05-14T02:31:58.544Z,94977.28
2023-05-14T02:34:26.639Z,94956.13
2023-05-14T02:36:54.536Z,94969.78
2023-05-14T02:39:22.467Z,94977.94
2023-05-14T02:41:50.568Z,94973.22
2023-05-14T02:44:18.606Z,94986.34
2023-05-14T02:46:48.071Z,94963.97
2023-05-14T02:49:15.985Z,94981.31
2023-05-14T02:51:44.022Z,94979.97
2023-05-14T02:54:11.922Z,94986.06
2023-05-14T02:56:39.832Z,94987.16
2023-05-14T02:59:07.991Z,94990.41
2023-05-14T03:01:36.065Z,94991.06
2023-05-14T03:04:05.956Z,94993.00
2023-05-14T03:06:33.888Z,94991.19
2023-05-14T03:09:01.728Z,94992.22
2023-05-14T03:11:29.626Z,94994.28
2023-05-14T03:13:57.528Z,94973.78
2023-05-14T03:16:25.539Z,94963.28
2023-05-14T03:18:53.524Z,94945.03
2023-05-14T03:21:22.969Z,94960.16
2023-05-14T03:23:50.858Z,94971.75
2023-05-14T03:26:18.784Z,94974.69
2023-05-14T03:28:49.232Z,94975.13
2023-05-14T03:31:17.179Z,94971.09
2023-05-14T03:33:45.487Z,94982.41
2023-05-14T03:36:13.386Z,94973.81
2023-05-14T03:38:42.629Z,94992.84
2023-05-14T03:41:10.636Z,94984.94
2023-05-14T03:43:38.514Z,94981.88
2023-05-14T03:46:06.450Z,94981.06
2023-05-14T03:48:34.436Z,94981.88
2023-05-14T03:51:02.553Z,94984.00
2023-05-14T03:53:30.611Z,94976.56
2023-05-14T03:55:59.987Z,94989.09
2023-05-14T03:58:27.891Z,94990.44
2023-05-14T04:00:55.767Z,94980.44
2023-05-14T04:03:23.843Z,94977.41
2023-05-14T04:05:52.489Z,94983.78
2023-05-14T04:08:20.477Z,94987.28
2023-05-14T04:10:48.340Z,94991.06
2023-05-14T04:13:17.620Z,94976.47
2023-05-14T04:15:45.571Z,94990.88
2023-05-14T04:18:13.615Z,94995.88
2023-05-14T04:20:41.694Z,94994.94
2023-05-14T04:23:09.650Z,95006.19
2023-05-14T04:25:37.660Z,95001.88
2023-05-14T04:28:06.031Z,95003.88
2023-05-14T04:30:35.637Z,95012.19
2023-05-14T04:33:04.246Z,95012.00
2023-05-14T04:35:32.329Z,95011.34
2023-05-14T04:38:00.220Z,95001.88
2023-05-14T04:40:28.184Z,95005.03
2023-05-14T04:42:56.139Z,95021.94
2023-05-14T04:45:24.204Z,95024.22
2023-05-14T04:47:53.555Z,95032.84
2023-05-14T04:50:22.065Z,95033.03
2023-05-14T04:52:50.103Z,95031.56
2023-05-14T04:55:18.226Z,95043.78
2023-05-14T04:57:46.101Z,95039.13
2023-05-14T05:00:14.881Z,95027.63
2023-05-14T05:02:42.831Z,95049.41
2023-05-14T05:05:12.439Z,95058.69
2023-05-14T05:07:40.360Z,95062.13
2023-05-14T05:10:09.879Z,95066.41
2023-05-14T05:12:37.858Z,95071.78
2023-05-14T05:15:06.541Z,95082.34
2023-05-14T05:17:34.562Z,95087.22
2023-05-14T05:20:02.691Z,95067.53
2023-05-14T05:22:32.192Z,95080.72
2023-05-14T05:25:00.222Z,95083.31
2023-05-14T05:27:28.391Z,95058.28
2023-05-14T05:29:56.430Z,95078.13
2023-05-14T05:32:24.729Z,95064.16
2023-05-14T05:34:53.045Z,95082.03
2023-05-14T05:37:21.056Z,95085.13
2023-05-14T05:39:50.333Z,95079.75
2023-05-14T05:42:18.288Z,95067.56
2023-05-14T05:44:46.265Z,95047.56
2023-05-14T05:47:14.143Z,95063.34
2023-05-14T05:49:44.134Z,95067.72
2023-05-14T05:52:12.081Z,95068.38
2023-05-14T05:54:40.876Z,95069.63
2023-05-14T05:57:10.234Z,95037.31
2023-05-14T05:59:38.212Z,95059.50
2023-05-14T06:02:06.465Z,95055.63
2023-05-14T06:04:34.388Z,95052.66
2023-05-14T06:07:02.334Z,95058.34
2023-05-14T06:09:30.336Z,95060.91
2023-05-14T06:11:58.296Z,95058.31
2023-05-14T06:14:27.723Z,95041.88
2023-05-14T06:16:55.855Z,95068.41
2023-05-14T06:19:24.350Z,95073.59
2023-05-14T06:21:52.305Z,95063.03
2023-05-14T06:24:21.344Z,95048.78
2023-05-14T06:26:49.531Z,95059.19
2023-05-14T06:29:17.509Z,95051.69
2023-05-14T06:31:46.845Z,95066.13
2023-05-14T06:34:15.019Z,95038.31
2023-05-14T06:36:43.055Z,95080.72
2023-05-14T06:39:11.045Z,95085.47
2023-05-14T06:41:38.987Z,95054.56
2023-05-14T06:44:06.899Z,95046.94
2023-05-14T06:46:34.877Z,95071.03
2023-05-14T06:49:04.313Z,95053.47
2023-05-14T06:51:32.649Z,95047.97
2023-05-14T06:54:00.629Z,95045.41
2023-05-14T06:56:28.637Z,95035.63
2023-05-14T06:58:56.788Z,95043.31
2023-05-14T07:01:24.783Z,95046.38
2023-05-14T07:03:52.946Z,95043.19
2023-05-14T07:06:25.916Z,95048.22
2023-05-14T07:08:53.918Z,95040.41
2023-05-14T07:11:22.189Z,95044.63
2023-05-14T07:13:50.441Z,95038.63
2023-05-14T07:16:18.460Z,95058.13
2023-05-14T07:18:46.738Z,95081.84
2023-05-14T07:21:14.660Z,95091.78
2023-05-14T07:23:43.978Z,95079.41
2023-05-14T07:26:13.421Z,95071.13
2023-05-14T07:28:41.402Z,95059.59
2023-05-14T07:31:09.853Z,95070.00
2023-05-14T07:33:37.898Z,95063.50
2023-05-14T07:36:06.538Z,95054.75
2023-05-14T07:38:34.599Z,95055.72
2023-05-14T07:41:04.027Z,95071.63
2023-05-14T07:43:32.375Z,95078.31
2023-05-14T07:46:00.438Z,95079.09
2023-05-14T07:51:12.086Z,95081.53
2023-05-14T07:53:40.187Z,95080.25
2023-05-14T07:56:10.255Z,95092.09
2023-05-14T07:58:39.160Z,95073.25
2023-05-14T08:01:09.264Z,95063.66
2023-05-14T08:03:37.588Z,95083.50
2023-05-14T08:06:05.951Z,95088.53
2023-05-14T08:08:33.994Z,95071.63
2023-05-14T08:11:02.082Z,95073.25
2023-05-14T08:13:34.629Z,95084.47
2023-05-14T08:16:02.976Z,95091.78
2023-05-14T08:18:31.069Z,95051.78
2023-05-14T08:20:59.054Z,95065.28
2023-05-14T08:23:27.222Z,95063.31
2023-05-14T08:25:55.188Z,95054.22
2023-05-14T08:28:23.220Z,95044.63
2023-05-14T08:30:52.720Z,95047.38
2023-05-14T08:33:20.752Z,95049.66
2023-05-14T08:35:48.769Z,95058.75
2023-05-14T08:38:16.775Z,95061.19
2023-05-14T08:40:49.794Z,95061.34
2023-05-14T08:43:27.081Z,95034.03
2023-05-14T08:46:01.311Z,95050.09
2023-05-14T08:48:34.445Z,95020.78
2023-05-14T08:51:03.307Z,95025.19
2023-05-14T08:53:32.370Z,95046.34
2023-05-14T08:56:02.576Z,95033.38
2023-05-14T08:58:30.574Z,95034.28
2023-05-14T09:01:00.397Z,95013.41
2023-05-14T09:03:28.992Z,95040.06
2023-05-14T09:05:59.363Z,95011.59
2023-05-14T09:08:28.225Z,95024.28
2023-05-14T09:10:56.186Z,95040.19
2023-05-14T09:13:25.015Z,95031.25
2023-05-14T09:15:57.486Z,95036.41
2023-05-14T09:18:26.962Z,95026.66
2023-05-14T09:20:55.153Z,95036.66
2023-05-14T09:23:23.187Z,95027.56
2023-05-14T09:25:51.347Z,95041.06
2023-05-14T09:28:21.296Z,95033.13
2023-05-14T09:30:52.254Z,95030.66
2023-05-14T09:33:29.068Z,95021.59
2023-05-14T09:36:00.462Z,95026.19
2023-05-14T09:38:31.904Z,95035.91
2023-05-14T09:41:00.840Z,94999.41
2023-05-14T09:43:28.841Z,95013.69
2023-05-14T09:45:56.854Z,94991.28
2023-05-14T09:48:24.878Z,95006.06
2023-05-14T09:50:54.383Z,95011.25
2023-05-14T09:53:22.693Z,94982.00
2023-05-14T09:55:50.880Z,95012.22
2023-05-14T09:58:18.966Z,95009.94
2023-05-14T10:00:47.968Z,94993.34
2023-05-14T10:03:19.631Z,95017.38
2023-05-14T10:05:51.159Z,95004.00
2023-05-14T10:08:25.480Z,94989.84
2023-05-14T10:10:54.981Z,94974.34
2023-05-14T10:13:26.170Z,94982.28
2023-05-14T10:16:02.276Z,94983.41
2023-05-14T10:18:34.362Z,94980.03
2023-05-14T10:21:06.812Z,94963.75
2023-05-14T10:23:38.193Z,94965.56
2023-05-14T10:26:06.989Z,94960.06
2023-05-14T10:28:35.405Z,94974.22
2023-05-14T10:31:03.505Z,94982.50
2023-05-14T10:33:31.634Z,94976.63
2023-05-14T10:36:03.333Z,94976.16
2023-05-14T10:38:33.698Z,94981.69
2023-05-14T10:41:04.252Z,94970.97
2023-05-14T10:43:37.359Z,94961.84
2023-05-14T10:46:06.026Z,94967.50
2023-05-14T10:48:35.158Z,94957.63
2023-05-14T10:51:03.420Z,94959.84
2023-05-14T10:53:36.160Z,94971.88
2023-05-14T10:56:13.537Z,94970.53
2023-05-14T10:58:43.842Z,94959.03
2023-05-14T11:01:13.754Z,94948.22
2023-05-14T11:03:43.859Z,94942.38
2023-05-14T11:06:13.215Z,94956.13
2023-05-14T11:08:41.957Z,94964.72
2023-05-14T11:11:11.869Z,94965.19
2023-05-14T11:13:42.290Z,94945.38
2023-05-14T11:18:44.500Z,94959.19
2023-05-14T11:21:13.257Z,94963.69
2023-05-14T11:23:41.223Z,94968.88
2023-05-14T11:26:09.266Z,94963.25
2023-05-14T11:28:39.997Z,94957.19
2023-05-14T11:31:08.035Z,94925.44
2023-05-14T11:33:37.200Z,94930.31
2023-05-14T11:36:06.224Z,94949.84
2023-05-14T11:38:34.304Z,94965.53
2023-05-14T11:41:04.411Z,94959.84
2023-05-14T11:43:32.366Z,94950.22
2023-05-14T11:46:01.668Z,94949.38
2023-05-14T11:48:29.668Z,94929.81
2023-05-14T11:50:57.656Z,94958.66
2023-05-14T11:53:28.539Z,94941.47
2023-05-14T11:55:57.961Z,94959.59
2023-05-14T11:58:26.379Z,94926.00
2023-05-14T12:00:57.093Z,94930.25
2023-05-14T12:03:30.217Z,94939.41
2023-05-14T12:05:59.343Z,94938.41
2023-05-14T12:08:29.054Z,94914.69
2023-05-14T12:10:59.508Z,94908.84
2023-05-14T12:13:28.400Z,94912.34
2023-05-14T12:15:57.688Z,94908.69
2023-05-14T12:18:29.665Z,94920.28
2023-05-14T12:21:03.091Z,94902.00
2023-05-14T12:23:32.499Z,94902.38
2023-05-14T12:26:04.022Z,94898.41
2023-05-14T12:28:32.780Z,94898.75
2023-05-14T12:31:01.422Z,94903.16
2023-05-14T12:33:33.363Z,94895.59
2023-05-14T12:36:13.506Z,94904.19
2023-05-14T12:38:48.431Z,94867.00
2023-05-14T12:41:17.861Z,94870.53
2023-05-14T12:43:48.832Z,94888.16
2023-05-14T12:46:19.977Z,94877.44
2023-05-14T12:48:52.380Z,94882.59
2023-05-14T12:51:21.766Z,94879.00
2023-05-14T12:53:51.670Z,94874.09
2023-05-14T12:56:20.186Z,94880.75
2023-05-14T12:58:49.311Z,94870.16
2023-05-14T13:01:20.155Z,94876.53
2023-05-14T13:03:49.522Z,94885.16
2023-05-14T13:06:18.205Z,94877.16
2023-05-14T13:08:46.344Z,94875.16
2023-05-14T13:11:14.735Z,94858.09
2023-05-14T13:13:42.756Z,94887.03
2023-05-14T13:16:17.182Z,94872.81
2023-05-14T13:18:45.897Z,94869.13
2023-05-14T13:21:16.097Z,94871.13
2023-05-14T13:23:47.176Z,94872.16
2023-05-14T13:26:16.008Z,94843.13
2023-05-14T13:28:44.992Z,94860.16
2023-05-14T13:31:15.233Z,94881.38
2023-05-14T13:33:44.991Z,94865.34
2023-05-14T13:36:18.562Z,94862.84
2023-05-14T13:38:48.229Z,94829.63
2023-05-14T13:41:19.261Z,94837.94
2023-05-14T13:43:48.452Z,94852.13
2023-05-14T13:46:19.576Z,94828.53
2023-05-14T13:48:51.335Z,94819.16
2023-05-14T13:51:23.203Z,94838.88
2023-05-14T13:53:52.037Z,94836.09
2023-05-14T13:56:22.654Z,94799.47
2023-05-14T13:58:51.140Z,94809.63
2023-05-14T14:01:19.466Z,94807.66
2023-05-14T14:03:48.400Z,94824.19
2023-05-14T14:06:16.630Z,94836.41
2023-05-14T14:08:47.514Z,94853.03
2023-05-14T14:11:17.826Z,94827.34
2023-05-14T14:13:46.833Z,94820.09
2023-05-14T14:16:15.515Z,94822.50
2023-05-14T14:18:45.574Z,94823.56
2023-05-14T14:21:13.636Z,94840.00
2023-05-14T14:23:41.667Z,94850.28
2023-05-14T14:26:11.422Z,94817.66
2023-05-14T14:28:40.327Z,94809.72
2023-05-14T14:31:08.542Z,94846.09
2023-05-14T14:33:42.924Z,94835.53
2023-05-14T14:36:11.703Z,94825.41
2023-05-14T14:38:40.113Z,94829.88
2023-05-14T14:41:10.253Z,94838.28
2023-05-14T14:43:45.275Z,94838.03
2023-05-14T14:46:14.038Z,94845.28
2023-05-14T14:48:42.531Z,94819.53
2023-05-14T14:51:10.849Z,94831.75
2023-05-14T14:53:40.398Z,94813.19
2023-05-14T14:56:08.743Z,94828.00
2023-05-14T14:58:36.953Z,94832.13
2023-05-14T15:01:06.845Z,94836.22
2023-05-14T15:03:34.929Z,94809.56
2023-05-14T15:06:06.201Z,94835.91
2023-05-14T15:08:35.624Z,94792.47
2023-05-14T15:11:07.479Z,94800.00
2023-05-14T15:13:37.457Z,94821.75
2023-05-14T15:16:07.754Z,94798.44
2023-05-14T15:18:35.952Z,94814.19
2023-05-14T15:21:07.181Z,94823.56
2023-05-14T15:23:35.304Z,94781.38
2023-05-14T15:26:03.412Z,94805.63
2023-05-14T15:28:35.000Z,94814.19
2023-05-14T15:31:05.301Z,94798.69
2023-05-14T15:33:35.074Z,94811.81
2023-05-14T15:36:03.039Z,94815.63
2023-05-14T15:38:30.990Z,94791.22
2023-05-14T15:40:59.072Z,94807.47
2023-05-14T15:43:27.152Z,94799.13
2023-05-14T15:45:55.198Z,94805.63
2023-05-14T15:48:23.177Z,94816.06
2023-05-14T15:50:52.901Z,94806.31
2023-05-14T15:53:20.952Z,94816.38
2023-05-14T15:55:49.395Z,94801.44
2023-05-14T15:58:17.444Z,94799.00
2023-05-14T16:00:45.417Z,94810.88
2023-05-14T16:03:16.029Z,94802.44
2023-05-14T16:05:44.964Z,94802.09
2023-05-14T16:08:16.777Z,94805.03
2023-05-14T16:10:44.680Z,94790.28
2023-05-14T16:13:12.763Z,94796.63
2023-05-14T16:15:41.034Z,94786.22
2023-05-14T16:18:09.085Z,94804.16
2023-05-14T16:20:37.065Z,94789.84
2023-05-14T16:23:05.586Z,94797.00
2023-05-14T16:25:34.919Z,94736.03
2023-05-14T16:28:03.001Z,94797.66
2023-05-14T16:30:31.087Z,94790.22
2023-05-14T16:32:59.116Z,94784.44
2023-05-14T16:35:27.125Z,94794.84
2023-05-14T16:37:55.484Z,94789.69
2023-05-14T16:40:24.293Z,94780.31
2023-05-14T16:42:53.831Z,94782.06
2023-05-14T16:45:21.938Z,94791.78
2023-05-14T16:47:50.129Z,94767.69
2023-05-14T16:50:18.260Z,94763.75
2023-05-14T16:52:46.346Z,94767.59
2023-05-14T16:55:14.416Z,94784.47
2023-05-14T16:57:43.828Z,94756.34
2023-05-14T17:00:15.311Z,94760.38
2023-05-14T17:02:43.204Z,94760.69
2023-05-14T17:05:11.517Z,94742.72
2023-05-14T17:07:40.022Z,94740.75
2023-05-14T17:10:08.654Z,94736.25
2023-05-14T17:12:36.729Z,94722.34
2023-05-14T17:15:05.913Z,94721.53
2023-05-14T17:17:35.435Z,94720.13
2023-05-14T17:20:05.950Z,94734.41
2023-05-14T17:22:33.951Z,94739.00
2023-05-14T17:25:01.971Z,94724.63
2023-05-14T17:27:33.208Z,94721.56
2023-05-14T17:30:01.372Z,94715.56
2023-05-14T17:32:29.726Z,94712.69
2023-05-14T17:34:59.240Z,94698.09
2023-05-14T17:37:27.475Z,94713.81
2023-05-14T17:39:55.574Z,94711.84
2023-05-14T17:42:23.766Z,94723.25
2023-05-14T17:44:51.942Z,94725.84
2023-05-14T17:47:20.691Z,94699.00
2023-05-14T17:49:48.870Z,94698.78
2023-05-14T17:52:18.405Z,94713.47
2023-05-14T17:54:51.455Z,94709.78
2023-05-14T17:57:26.729Z,94714.97
2023-05-14T18:00:00.901Z,94709.19
2023-05-14T18:02:38.321Z,94668.38
2023-05-14T18:05:08.291Z,94702.47
2023-05-14T18:07:44.726Z,94700.16
2023-05-14T18:10:22.822Z,94736.94
2023-05-14T18:12:56.100Z,94707.44
2023-05-14T18:15:42.109Z,94743.63
2023-05-14T18:18:19.461Z,94741.97
2023-05-14T18:20:52.723Z,94729.72
2023-05-14T18:23:32.561Z,94700.47
2023-05-14T18:26:08.894Z,94721.47
2023-05-14T18:28:45.812Z,94681.94
2023-05-14T18:31:13.860Z,94716.59
2023-05-14T18:33:42.053Z,94716.13
2023-05-14T18:36:12.395Z,94701.09
2023-05-14T18:38:42.003Z,94705.88
2023-05-14T18:41:09.983Z,94710.41
2023-05-14T18:43:38.061Z,94688.44
2023-05-14T18:46:06.579Z,94688.41
2023-05-14T18:48:34.762Z,94678.03
2023-05-14T18:51:02.828Z,94707.59
2023-05-14T18:53:31.488Z,94711.81
2023-05-14T18:56:00.994Z,94728.94
2023-05-14T18:58:28.875Z,94736.94
2023-05-14T19:00:57.880Z,94703.09
2023-05-14T19:03:26.304Z,94731.00
2023-05-14T19:05:54.913Z,94701.28
2023-05-14T19:08:23.089Z,94726.59
2023-05-14T19:10:51.290Z,94744.59
2023-05-14T19:13:21.025Z,94729.19
2023-05-14T19:15:49.174Z,94732.53
2023-05-14T19:18:17.703Z,94724.91
2023-05-14T19:20:46.734Z,94746.03
2023-05-14T19:23:14.651Z,94737.91
2023-05-14T19:25:42.536Z,94722.66
2023-05-14T19:28:10.633Z,94752.63
2023-05-14T19:30:40.457Z,94733.06
2023-05-14T19:33:08.565Z,94741.25
2023-05-14T19:35:36.803Z,94757.06
2023-05-14T19:38:04.767Z,94770.53
2023-05-14T19:40:32.687Z,94772.94
2023-05-14T19:43:00.594Z,94774.06
2023-05-14T19:45:28.591Z,94747.91
2023-05-14T19:47:58.407Z,94722.53
2023-05-14T19:50:26.464Z,94716.59
2023-05-14T19:52:54.455Z,94726.63
2023-05-14T19:55:22.651Z,94717.75
2023-05-14T19:57:50.750Z,94729.72
2023-05-14T20:00:19.074Z,94719.38
2023-05-14T20:02:47.968Z,94728.56
2023-05-14T20:05:22.921Z,94743.03
2023-05-14T20:07:50.951Z,94716.59
2023-05-14T20:10:18.951Z,94718.44
2023-05-14T20:12:46.943Z,94720.00
2023-05-14T20:15:15.030Z,94686.28
2023-05-14T20:17:43.184Z,94695.72
2023-05-14T20:20:12.135Z,94709.97
2023-05-14T20:22:42.886Z,94717.78
2023-05-14T20:25:11.196Z,94726.22
2023-05-14T20:27:39.298Z,94742.78
2023-05-14T20:30:08.568Z,94688.94
2023-05-14T20:32:36.633Z,94718.31
2023-05-14T20:35:05.206Z,94716.84
2023-05-14T20:37:34.014Z,94711.03
2023-05-14T20:40:04.991Z,94729.47
2023-05-14T20:42:33.042Z,94737.13
2023-05-14T20:45:00.978Z,94728.81
2023-05-14T20:47:38.018Z,94725.56
2023-05-14T20:50:06.874Z,94679.16
2023-05-14T20:52:34.825Z,94699.81
2023-05-14T20:55:08.743Z,94697.84
2023-05-14T20:57:36.874Z,94704.03
2023-05-14T21:00:09.951Z,94695.28
2023-05-14T21:02:38.912Z,94676.34
2023-05-14T21:05:08.264Z,94704.03
2023-05-14T21:07:36.570Z,94703.03
2023-05-14T21:10:06.349Z,94709.41
2023-05-14T21:12:34.251Z,94713.28
2023-05-14T21:15:02.334Z,94713.28
2023-05-14T21:17:30.578Z,94712.66
2023-05-14T21:19:58.631Z,94693.38
2023-05-14T21:22:27.753Z,94674.38
2023-05-14T21:24:56.852Z,94683.59
2023-05-14T21:27:26.361Z,94674.03
2023-05-14T21:29:54.625Z,94715.06
2023-05-14T21:32:23.983Z,94706.63
2023-05-14T21:34:55.173Z,94715.19
2023-05-14T21:37:23.335Z,94696.63
2023-05-14T21:39:54.037Z,94695.38
2023-05-14T21:42:26.761Z,94678.97
2023-05-14T21:44:54.818Z,94683.34
2023-05-14T21:47:22.789Z,94675.72
2023-05-14T21:49:50.759Z,94684.34
2023-05-14T21:52:18.776Z,94675.78
2023-05-14T21:54:46.680Z,94664.09
2023-05-14T21:57:14.876Z,94686.69
2023-05-14T21:59:44.206Z,94664.38
2023-05-14T22:02:12.219Z,94673.47
2023-05-14T22:04:40.836Z,94669.94
2023-05-14T22:07:08.773Z,94643.34
2023-05-14T22:09:36.977Z,94653.53
2023-05-14T22:12:05.838Z,94664.25
2023-05-14T22:14:33.743Z,94669.56
2023-05-14T22:17:03.107Z,94677.81
2023-05-14T22:19:31.112Z,94662.38
2023-05-14T22:21:59.117Z,94651.34
2023-05-14T22:24:27.194Z,94655.28
2023-05-14T22:26:55.092Z,94654.69
2023-05-14T22:29:23.066Z,94662.78
2023-05-14T22:31:51.100Z,94655.09
2023-05-14T22:34:20.697Z,94658.50
2023-05-14T22:36:48.696Z,94640.34
2023-05-14T22:39:16.644Z,94631.78
2023-05-14T22:41:44.539Z,94648.78
2023-05-14T22:44:12.448Z,94637.09
2023-05-14T22:46:40.892Z,94628.34
2023-05-14T22:49:09.194Z,94629.88
2023-05-14T22:51:38.741Z,94635.38
2023-05-14T22:54:06.788Z,94603.66
2023-05-14T22:56:34.758Z,94627.53
2023-05-14T22:59:02.999Z,94601.19
2023-05-14T23:01:32.638Z,94618.13
2023-05-14T23:04:00.659Z,94592.34
2023-05-14T23:06:28.739Z,94610.31
2023-05-14T23:08:58.019Z,94616.50
2023-05-14T23:11:27.401Z,94629.38
2023-05-14T23:13:55.803Z,94615.72
2023-05-14T23:16:23.860Z,94603.56
2023-05-14T23:18:52.800Z,94608.34
2023-05-14T23:21:20.825Z,94609.91
2023-05-14T23:23:48.838Z,94614.19
2023-05-14T23:26:18.378Z,94612.09
2023-05-14T23:28:47.456Z,94602.44
2023-05-14T23:31:15.488Z,94598.47
2023-05-14T23:33:44.655Z,94590.97
2023-05-14T23:36:12.731Z,94580.56
2023-05-14T23:38:41.090Z,94582.66
2023-05-14T23:41:08.990Z,94568.66
2023-05-14T23:43:38.246Z,94545.94
2023-05-14T23:46:06.295Z,94540.59
2023-05-14T23:48:34.280Z,94530.97
2023-05-14T23:51:02.229Z,94511.56
2023-05-14T23:53:30.153Z,94534.19
2023-05-14T23:55:58.131Z,94512.81
2023-05-14T23:58:26.469Z,94505.81
